Time,TemperatureF,DewpointF,PressureIn,WindDirection,WindDirectionDegrees,WindSpeedMPH,WindSpeedGustMPH,Humidity,HourlyPrecipIn,Conditions,Clouds,dailyrainin,SolarRadiationWatts/m^2,SoftwareType,DateUTC
2013-02-21 00:00:00,21.9,15.5,30.33,NW,323,5.0,5.0,76,0.00,,,0.00,0,Wunderground v.1.15,2013-02-21 05:00:00,
2013-02-21 00:05:00,21.8,15.4,30.33,NW,304,5.0,5.0,76,0.00,,,0.00,0,Wunderground v.1.15,2013-02-21 05:05:00,
2013-02-21 00:10:00,21.8,15.4,30.33,NW,319,5.0,5.0,76,0.00,,,0.00,0,Wunderground v.1.15,2013-02-21 05:10:00,
2013-02-21 00:15:00,21.8,15.1,30.33,WNW,287,5.0,5.0,75,0.00,,,0.00,0,Wunderground v.1.15,2013-02-21 05:15:00,
2013-02-21 00:20:00,21.8,15.1,30.33,NW,309,5.0,5.0,75,0.00,,,0.00,0,Wunderground v.1.15,2013-02-21 05:20:00,
2013-02-21 00:30:00,21.8,15.1,30.33,WNW,292,6.0,6.0,75,0.00,,,0.00,0,Wunderground v.1.15,2013-02-21 05:30:00,
2013-02-21 00:40:00,21.8,15.1,30.34,WNW,298,5.0,5.0,75,0.00,,,0.00,0,Wunderground v.1.15,2013-02-21 05:40:00,
2013-02-21 00:50:00,21.8,15.1,30.34,West,271,4.0,5.0,75,0.00,,,0.00,0,Wunderground v.1.15,2013-02-21 05:50:00,
2013-02-21 01:00:00,21.8,15.1,30.34,NW,305,5.0,5.0,75,0.00,,,0.00,0,Wunderground v.1.15,2013-02-21 06:00:00,
2013-02-21 01:10:00,21.8,15.1,30.34,North,355,5.0,7.0,75,0.00,,,0.00,0,Wunderground v.1.15,2013-02-21 06:10:00,
2013-02-21 01:20:00,21.8,15.1,30.34,NW,311,6.0,6.0,75,0.00,,,0.00,0,Wunderground v.1.15,2013-02-21 06:20:00,
2013-02-21 01:30:00,21.8,15.1,30.34,WNW,301,4.0,6.0,75,0.00,,,0.00,0,Wunderground v.1.15,2013-02-21 06:30:00,
2013-02-21 01:40:00,21.8,15.1,30.34,WNW,292,4.0,5.0,75,0.00,,,0.00,0,Wunderground v.1.15,2013-02-21 06:40:00,
2013-02-21 01:50:00,21.7,15.0,30.34,NW,309,5.0,5.0,75,0.00,,,0.00,0,Wunderground v.1.15,2013-02-21 06:50:00,
2013-02-21 02:00:00,21.7,15.0,30.34,NW,318,5.0,6.0,75,0.00,,,0.00,0,Wunderground v.1.15,2013-02-21 07:00:00,
2013-02-21 02:10:00,21.7,15.3,30.34,West,281,4.0,4.0,76,0.00,,,0.00,0,Wunderground v.1.15,2013-02-21 07:10:00,
2013-02-21 02:20:00,21.7,15.3,30.35,WNW,298,3.0,6.0,76,0.00,,,0.00,0,Wunderground v.1.15,2013-02-21 07:20:00,
2013-02-21 02:30:00,21.7,15.3,30.35,WNW,291,3.0,4.0,76,0.00,,,0.00,0,Wunderground v.1.15,2013-02-21 07:30:00,
2013-02-21 02:40:00,21.7,15.3,30.35,WNW,294,2.0,2.0,76,0.00,,,0.00,0,Wunderground v.1.15,2013-02-21 07:40:00,
2013-02-21 02:50:00,21.7,15.6,30.34,NNW,339,3.0,3.0,77,0.00,,,0.00,0,Wunderground v.1.15,2013-02-21 07:50:00,
2013-02-21 03:00:00,21.7,15.3,30.35,WNW,302,3.0,3.0,76,0.00,,,0.00,0,Wunderground v.1.15,2013-02-21 08:00:00,
2013-02-21 03:10:00,21.7,15.6,30.35,West,277,3.0,3.0,77,0.00,,,0.00,0,Wunderground v.1.15,2013-02-21 08:10:00,
2013-02-21 03:15:00,21.7,15.6,30.35,WNW,300,4.0,7.0,77,0.00,,,0.00,0,Wunderground v.1.15,2013-02-21 08:15:00,
2013-02-21 03:25:00,21.7,15.6,30.35,WNW,290,3.0,5.0,77,0.00,,,0.00,0,Wunderground v.1.15,2013-02-21 08:25:00,
2013-02-21 03:35:00,21.7,15.6,30.35,WNW,297,4.0,7.0,77,0.00,,,0.00,0,Wunderground v.1.15,2013-02-21 08:35:00,
2013-02-21 03:45:00,21.7,15.6,30.35,WNW,299,4.0,4.0,77,0.00,,,0.00,0,Wunderground v.1.15,2013-02-21 08:45:00,
2013-02-21 03:50:00,21.7,15.6,30.35,WNW,298,4.0,5.0,77,0.00,,,0.00,0,Wunderground v.1.15,2013-02-21 08:50:00,
2013-02-21 04:00:00,21.7,15.6,30.34,WNW,301,5.0,5.0,77,0.00,,,0.00,0,Wunderground v.1.15,2013-02-21 09:00:00,
2013-02-21 04:10:00,21.6,15.5,30.34,NW,307,4.0,4.0,77,0.00,,,0.00,0,Wunderground v.1.15,2013-02-21 09:10:00,
2013-02-21 04:20:00,21.6,15.8,30.34,NNW,338,5.0,5.0,78,0.00,,,0.00,0,Wunderground v.1.15,2013-02-21 09:20:00,
2013-02-21 04:30:00,21.5,15.4,30.34,WNW,300,5.0,6.0,77,0.00,,,0.00,0,Wunderground v.1.15,2013-02-21 09:30:00,
2013-02-21 04:40:00,21.5,15.7,30.35,WNW,302,4.0,8.0,78,0.00,,,0.00,0,Wunderground v.1.15,2013-02-21 09:40:00,
2013-02-21 04:50:00,21.6,15.8,30.35,WNW,296,4.0,4.0,78,0.00,,,0.00,0,Wunderground v.1.15,2013-02-21 09:50:00,
2013-02-21 05:00:00,21.5,15.7,30.35,WNW,300,4.0,5.0,78,0.00,,,0.00,0,Wunderground v.1.15,2013-02-21 10:00:00,
2013-02-21 05:10:00,21.6,15.8,30.35,NNW,331,5.0,5.0,78,0.00,,,0.00,0,Wunderground v.1.15,2013-02-21 10:10:00,
2013-02-21 05:20:00,21.5,15.7,30.35,NNW,344,5.0,6.0,78,0.00,,,0.00,0,Wunderground v.1.15,2013-02-21 10:20:00,
2013-02-21 05:30:00,21.5,15.7,30.35,NW,308,5.0,5.0,78,0.00,,,0.00,0,Wunderground v.1.15,2013-02-21 10:30:00,
2013-02-21 05:40:00,21.5,16.0,30.35,West,281,5.0,5.0,79,0.00,,,0.00,0,Wunderground v.1.15,2013-02-21 10:40:00,
2013-02-21 05:45:00,21.5,16.0,30.35,North,355,5.0,7.0,79,0.00,,,0.00,0,Wunderground v.1.15,2013-02-21 10:45:00,
2013-02-21 05:55:00,21.5,16.0,30.35,NW,306,6.0,6.0,79,0.00,,,0.00,0,Wunderground v.1.15,2013-02-21 10:55:00,
2013-02-21 06:05:00,21.3,15.8,30.36,NW,326,4.0,12.0,79,0.00,,,0.00,0,Wunderground v.1.15,2013-02-21 11:05:00,
2013-02-21 06:15:00,21.3,15.8,30.36,NW,314,3.0,4.0,79,0.00,,,0.00,0,Wunderground v.1.15,2013-02-21 11:15:00,
2013-02-21 06:20:00,21.3,15.8,30.36,WNW,302,3.0,4.0,79,0.00,,,0.00,0,Wunderground v.1.15,2013-02-21 11:20:00,
2013-02-21 06:30:00,21.3,15.8,30.37,NW,304,4.0,4.0,79,0.00,,,0.00,0,Wunderground v.1.15,2013-02-21 11:30:00,
2013-02-21 06:40:00,21.3,15.8,30.37,NW,325,3.0,5.0,79,0.00,,,0.00,0,Wunderground v.1.15,2013-02-21 11:40:00,
2013-02-21 06:50:00,21.3,16.1,30.38,WNW,296,3.0,3.0,80,0.00,,,0.00,0,Wunderground v.1.15,2013-02-21 11:50:00,
2013-02-21 07:05:00,21.3,16.1,30.38,WNW,297,3.0,4.0,80,0.00,,,0.00,0,Wunderground v.1.15,2013-02-21 12:05:00,
2013-02-21 07:15:00,21.3,16.1,30.39,WNW,302,4.0,6.0,80,0.00,,,0.00,0,Wunderground v.1.15,2013-02-21 12:15:00,
2013-02-21 07:25:00,21.3,16.1,30.40,WNW,296,3.0,4.0,80,0.00,,,0.00,0,Wunderground v.1.15,2013-02-21 12:25:00,
2013-02-21 07:35:00,21.2,16.0,30.40,WNW,292,4.0,4.0,80,0.00,,,0.00,5,Wunderground v.1.15,2013-02-21 12:35:00,
2013-02-21 07:40:00,21.2,16.0,30.40,WNW,292,3.0,5.0,80,0.00,,,0.00,7,Wunderground v.1.15,2013-02-21 12:40:00,
2013-02-21 07:50:00,21.2,16.0,30.38,NW,304,3.0,4.0,80,0.00,,,0.00,14,Wunderground v.1.15,2013-02-21 12:50:00,
2013-02-21 08:00:00,21.4,16.5,30.37,NNE,31,6.0,8.0,81,0.00,,,0.00,19,Wunderground v.1.15,2013-02-21 13:00:00,
2013-02-21 08:10:00,21.3,16.1,30.38,North,11,7.0,8.0,80,0.00,,,0.00,26,Wunderground v.1.15,2013-02-21 13:10:00,
2013-02-21 08:15:00,21.3,16.4,30.38,North,5,7.0,8.0,81,0.00,,,0.00,30,Wunderground v.1.15,2013-02-21 13:15:00,
2013-02-21 08:20:00,21.2,16.0,30.38,North,5,6.0,6.0,80,0.00,,,0.00,33,Wunderground v.1.15,2013-02-21 13:20:00,
2013-02-21 08:30:00,21.4,16.5,30.39,NNW,327,4.0,4.0,81,0.00,,,0.00,44,Wunderground v.1.15,2013-02-21 13:30:00,
2013-02-21 08:40:00,21.4,15.9,30.39,North,360,4.0,4.0,79,0.00,,,0.00,56,Wunderground v.1.15,2013-02-21 13:40:00,
2013-02-21 08:50:00,21.5,16.3,30.39,North,5,2.0,2.0,80,0.00,,,0.00,65,Wunderground v.1.15,2013-02-21 13:50:00,
2013-02-21 08:55:00,21.5,16.0,30.39,NNE,32,2.0,4.0,79,0.00,,,0.00,67,Wunderground v.1.15,2013-02-21 13:55:00,
2013-02-21 09:10:00,21.7,16.5,30.39,ENE,61,4.0,5.0,80,0.00,,,0.00,76,Wunderground v.1.15,2013-02-21 14:10:00,
2013-02-21 09:20:00,21.8,16.6,30.39,NE,54,3.0,3.0,80,0.00,,,0.00,88,Wunderground v.1.15,2013-02-21 14:20:00,
2013-02-21 09:25:00,21.8,16.6,30.39,NE,54,2.0,3.0,80,0.00,,,0.00,93,Wunderground v.1.15,2013-02-21 14:25:00,
2013-02-21 09:30:00,21.9,16.7,30.39,NE,34,2.0,2.0,80,0.00,,,0.00,93,Wunderground v.1.15,2013-02-21 14:30:00,
2013-02-21 09:35:00,22.0,17.1,30.39,NE,56,3.0,3.0,81,0.00,,,0.00,113,Wunderground v.1.15,2013-02-21 14:35:00,
2013-02-21 09:50:00,22.1,16.9,30.40,NNE,24,5.0,5.0,80,0.00,,,0.00,104,Wunderground v.1.15,2013-02-21 14:50:00,
2013-02-21 10:00:00,22.1,16.6,30.41,NNE,31,2.0,2.0,79,0.00,,,0.00,102,Wunderground v.1.15,2013-02-21 15:00:00,
2013-02-21 10:10:00,22.3,16.8,30.40,NE,38,2.0,2.0,79,0.00,,,0.00,120,Wunderground v.1.15,2013-02-21 15:10:00,
2013-02-21 10:20:00,22.5,17.0,30.39,NNE,24,4.0,6.0,79,0.00,,,0.00,139,Wunderground v.1.15,2013-02-21 15:20:00,
2013-02-21 10:35:00,22.8,17.0,30.40,East,83,5.0,5.0,78,0.00,,,0.00,142,Wunderground v.1.15,2013-02-21 15:35:00,
2013-02-21 10:45:00,22.9,17.1,30.39,East,80,5.0,6.0,78,0.00,,,0.00,156,Wunderground v.1.15,2013-02-21 15:45:00,
2013-02-21 10:55:00,23.0,17.5,30.39,East,101,5.0,6.0,79,0.00,,,0.00,169,Wunderground v.1.15,2013-02-21 15:55:00,
2013-02-21 11:05:00,23.0,17.5,30.38,ENE,63,4.0,6.0,79,0.00,,,0.00,178,Wunderground v.1.15,2013-02-21 16:05:00,
2013-02-21 11:15:00,23.5,17.9,30.38,ENE,69,6.0,6.0,79,0.00,,,0.00,209,Wunderground v.1.15,2013-02-21 16:15:00,
2013-02-21 11:25:00,23.8,17.9,30.38,ENE,69,7.0,10.0,78,0.00,,,0.00,279,Wunderground v.1.15,2013-02-21 16:25:00,
2013-02-21 11:35:00,23.6,17.1,30.39,NNE,19,6.0,8.0,76,0.00,,,0.00,204,Wunderground v.1.15,2013-02-21 16:35:00,
2013-02-21 11:45:00,23.8,17.9,30.39,ENE,71,3.0,6.0,78,0.00,,,0.00,199,Wunderground v.1.15,2013-02-21 16:45:00,
2013-02-21 11:55:00,24.1,18.2,30.40,ENE,69,5.0,5.0,78,0.00,,,0.00,232,Wunderground v.1.15,2013-02-21 16:55:00,
2013-02-21 12:05:00,24.2,17.7,30.40,ENE,72,4.0,4.0,76,0.00,,,0.00,251,Wunderground v.1.15,2013-02-21 17:05:00,
2013-02-21 12:15:00,24.3,17.8,30.40,ESE,123,2.0,4.0,76,0.00,,,0.00,239,Wunderground v.1.15,2013-02-21 17:15:00,
2013-02-21 12:25:00,24.5,18.0,30.40,ENE,78,3.0,3.0,76,0.00,,,0.00,292,Wunderground v.1.15,2013-02-21 17:25:00,
2013-02-21 12:35:00,24.6,18.1,30.39,East,89,5.0,6.0,76,0.00,,,0.00,251,Wunderground v.1.15,2013-02-21 17:35:00,
2013-02-21 12:45:00,24.6,18.1,30.38,East,84,5.0,6.0,76,0.00,,,0.00,258,Wunderground v.1.15,2013-02-21 17:45:00,
2013-02-21 12:55:00,24.8,18.6,30.37,ESE,119,6.0,7.0,77,0.00,,,0.00,295,Wunderground v.1.15,2013-02-21 17:55:00,
2013-02-21 13:05:00,25.0,18.5,30.36,ENE,67,5.0,6.0,76,0.00,,,0.00,327,Wunderground v.1.15,2013-02-21 18:05:00,
2013-02-21 13:15:00,25.3,18.8,30.35,East,85,6.0,6.0,76,0.00,,,0.00,316,Wunderground v.1.15,2013-02-21 18:15:00,
2013-02-21 13:25:00,25.7,19.5,30.34,East,87,6.0,11.0,77,0.00,,,0.00,390,Wunderground v.1.15,2013-02-21 18:25:00,
2013-02-21 13:35:00,25.9,19.7,30.33,East,88,8.0,8.0,77,0.00,,,0.00,468,Wunderground v.1.15,2013-02-21 18:35:00,
2013-02-21 13:45:00,26.3,20.7,30.33,East,89,8.0,8.0,79,0.00,,,0.00,401,Wunderground v.1.15,2013-02-21 18:45:00,
2013-02-21 13:55:00,26.3,19.8,30.33,ENE,76,8.0,8.0,76,0.00,,,0.00,397,Wunderground v.1.15,2013-02-21 18:55:00,
2013-02-21 14:05:00,26.2,19.7,30.33,East,86,7.0,8.0,76,0.00,,,0.00,318,Wunderground v.1.15,2013-02-21 19:05:00,
2013-02-21 14:15:00,26.4,20.2,30.32,East,90,8.0,8.0,77,0.00,,,0.00,283,Wunderground v.1.15,2013-02-21 19:15:00,
2013-02-21 14:25:00,26.4,20.2,30.31,East,88,9.0,9.0,77,0.00,,,0.00,301,Wunderground v.1.15,2013-02-21 19:25:00,
2013-02-21 14:35:00,26.6,20.4,30.31,ENE,76,9.0,11.0,77,0.00,,,0.00,267,Wunderground v.1.15,2013-02-21 19:35:00,
2013-02-21 14:45:00,26.3,20.1,30.29,East,90,10.0,10.0,77,0.00,,,0.00,241,Wunderground v.1.15,2013-02-21 19:45:00,
2013-02-21 14:55:00,26.4,20.5,30.27,ENE,71,9.0,11.0,78,0.00,,,0.00,213,Wunderground v.1.15,2013-02-21 19:55:00,
2013-02-21 15:05:00,26.3,20.4,30.26,East,89,12.0,14.0,78,0.00,,,0.00,195,Wunderground v.1.15,2013-02-21 20:05:00,
2013-02-21 15:15:00,26.4,20.5,30.26,East,100,11.0,12.0,78,0.00,,,0.00,183,Wunderground v.1.15,2013-02-21 20:15:00,
2013-02-21 15:25:00,26.7,20.5,30.27,East,84,11.0,11.0,77,0.00,,,0.00,176,Wunderground v.1.15,2013-02-21 20:25:00,
2013-02-21 15:30:00,26.8,20.9,30.28,ESE,103,10.0,11.0,78,0.00,,,0.00,163,Wunderground v.1.15,2013-02-21 20:30:00,
2013-02-21 15:40:00,26.9,20.7,30.29,East,94,8.0,11.0,77,0.00,,,0.00,134,Wunderground v.1.15,2013-02-21 20:40:00,
2013-02-21 15:45:00,27.0,20.7,30.29,East,99,9.0,12.0,77,0.00,,,0.00,139,Wunderground v.1.15,2013-02-21 20:45:00,
2013-02-21 15:55:00,27.0,20.7,30.30,ENE,74,9.0,10.0,77,0.00,,,0.00,111,Wunderground v.1.15,2013-02-21 20:55:00,
2013-02-21 16:05:00,27.2,20.9,30.30,ENE,70,10.0,13.0,77,0.00,,,0.00,109,Wunderground v.1.15,2013-02-21 21:05:00,
2013-02-21 16:15:00,27.3,21.0,30.30,East,87,11.0,12.0,77,0.00,,,0.00,90,Wunderground v.1.15,2013-02-21 21:15:00,
2013-02-21 16:25:00,27.2,21.5,30.31,East,86,11.0,11.0,79,0.00,,,0.00,81,Wunderground v.1.15,2013-02-21 21:25:00,
2013-02-21 16:35:00,27.1,21.2,30.31,East,96,10.0,13.0,78,0.00,,,0.00,72,Wunderground v.1.15,2013-02-21 21:35:00,
2013-02-21 16:45:00,26.9,21.0,30.30,East,86,10.0,11.0,78,0.00,,,0.00,63,Wunderground v.1.15,2013-02-21 21:45:00,
2013-02-21 16:55:00,26.9,21.3,30.30,East,91,12.0,14.0,79,0.00,,,0.00,54,Wunderground v.1.15,2013-02-21 21:55:00,
2013-02-21 17:00:00,26.8,21.2,30.30,East,95,12.0,12.0,79,0.00,,,0.00,46,Wunderground v.1.15,2013-02-21 22:00:00,
2013-02-21 17:10:00,26.7,21.4,30.31,East,93,12.0,12.0,80,0.00,,,0.00,40,Wunderground v.1.15,2013-02-21 22:10:00,
2013-02-21 17:20:00,26.5,20.9,30.31,East,101,12.0,15.0,79,0.00,,,0.00,30,Wunderground v.1.15,2013-02-21 22:20:00,
2013-02-21 17:30:00,26.5,21.2,30.32,East,97,12.0,12.0,80,0.00,,,0.00,21,Wunderground v.1.15,2013-02-21 22:30:00,
2013-02-21 17:35:00,26.5,21.2,30.31,East,95,11.0,12.0,80,0.00,,,0.00,21,Wunderground v.1.15,2013-02-21 22:35:00,
2013-02-21 17:40:00,26.4,21.1,30.31,East,84,12.0,12.0,80,0.00,,,0.00,16,Wunderground v.1.15,2013-02-21 22:40:00,
2013-02-21 17:50:00,26.3,21.0,30.32,East,96,12.0,12.0,80,0.00,,,0.00,12,Wunderground v.1.15,2013-02-21 22:50:00,
2013-02-21 18:05:00,26.2,20.9,30.31,East,98,13.0,13.0,80,0.00,,,0.00,5,Wunderground v.1.15,2013-02-21 23:05:00,
2013-02-21 18:15:00,26.0,20.7,30.30,East,101,12.0,12.0,80,0.00,,,0.00,0,Wunderground v.1.15,2013-02-21 23:15:00,
2013-02-21 18:20:00,26.0,20.7,30.30,ESE,121,12.0,12.0,80,0.00,,,0.00,0,Wunderground v.1.15,2013-02-21 23:20:00,
2013-02-21 18:25:00,26.0,21.0,30.29,East,82,12.0,14.0,81,0.00,,,0.00,0,Wunderground v.1.15,2013-02-21 23:25:00,
2013-02-21 18:35:00,25.8,20.8,30.28,East,94,13.0,13.0,81,0.00,,,0.00,0,Wunderground v.1.15,2013-02-21 23:35:00,
2013-02-21 18:45:00,25.6,20.6,30.29,East,93,14.0,16.0,81,0.00,,,0.00,0,Wunderground v.1.15,2013-02-21 23:45:00,
2013-02-21 18:55:00,25.6,20.9,30.30,East,86,13.0,13.0,82,0.00,,,0.00,0,Wunderground v.1.15,2013-02-21 23:55:00,
2013-02-21 19:00:00,25.6,20.9,30.30,ESE,105,13.0,15.0,82,0.00,,,0.00,0,Wunderground v.1.15,2013-02-22 00:00:00,
2013-02-21 19:10:00,25.4,21.0,30.30,ESE,119,13.0,15.0,83,0.00,,,0.00,0,Wunderground v.1.15,2013-02-22 00:10:00,
2013-02-21 19:20:00,25.2,20.5,30.30,East,91,14.0,14.0,82,0.00,,,0.00,0,Wunderground v.1.15,2013-02-22 00:20:00,
2013-02-21 19:30:00,24.9,20.5,30.30,East,96,14.0,14.0,83,0.00,,,0.00,0,Wunderground v.1.15,2013-02-22 00:30:00,
2013-02-21 19:35:00,24.7,20.3,30.30,East,96,15.0,15.0,83,0.00,,,0.00,0,Wunderground v.1.15,2013-02-22 00:35:00,
2013-02-21 19:45:00,24.4,19.7,30.28,East,80,15.0,19.0,82,0.00,,,0.00,0,Wunderground v.1.15,2013-02-22 00:45:00,
2013-02-21 19:55:00,24.2,19.5,30.26,East,80,16.0,16.0,82,0.00,,,0.00,0,Wunderground v.1.15,2013-02-22 00:55:00,
2013-02-21 20:05:00,24.0,19.6,30.26,East,91,15.0,21.0,83,0.00,,,0.00,0,Wunderground v.1.15,2013-02-22 01:05:00,
2013-02-21 20:10:00,23.9,19.2,30.26,East,88,16.0,16.0,82,0.00,,,0.00,0,Wunderground v.1.15,2013-02-22 01:10:00,
2013-02-21 20:20:00,23.8,19.4,30.26,ENE,69,14.0,14.0,83,0.00,,,0.00,0,Wunderground v.1.15,2013-02-22 01:20:00,
2013-02-21 20:30:00,23.4,18.7,30.26,East,90,16.0,16.0,82,0.00,,,0.00,0,Wunderground v.1.15,2013-02-22 01:30:00,
2013-02-21 20:40:00,23.0,18.0,30.26,East,81,16.0,16.0,81,0.00,,,0.00,0,Wunderground v.1.15,2013-02-22 01:40:00,
2013-02-21 20:50:00,22.7,17.7,30.26,East,89,15.0,15.0,81,0.00,,,0.00,0,Wunderground v.1.15,2013-02-22 01:50:00,
2013-02-21 20:55:00,22.7,17.7,30.27,East,93,15.0,15.0,81,0.00,,,0.00,0,Wunderground v.1.15,2013-02-22 01:55:00,
2013-02-21 21:10:00,22.5,17.8,30.26,East,84,13.0,13.0,82,0.00,,,0.00,0,Wunderground v.1.15,2013-02-22 02:10:00,
2013-02-21 21:20:00,22.4,17.7,30.26,East,92,13.0,15.0,82,0.00,,,0.00,0,Wunderground v.1.15,2013-02-22 02:20:00,
2013-02-21 21:30:00,22.4,17.7,30.26,East,99,15.0,16.0,82,0.00,,,0.00,0,Wunderground v.1.15,2013-02-22 02:30:00,
2013-02-21 21:35:00,22.5,17.8,30.25,East,97,15.0,16.0,82,0.00,,,0.00,0,Wunderground v.1.15,2013-02-22 02:35:00,
2013-02-21 21:40:00,22.5,17.8,30.25,ENE,75,15.0,15.0,82,0.00,,,0.00,0,Wunderground v.1.15,2013-02-22 02:40:00,
2013-02-21 21:50:00,22.4,18.0,30.24,ESE,103,15.0,15.0,83,0.00,,,0.00,0,Wunderground v.1.15,2013-02-22 02:50:00,
2013-02-21 22:00:00,22.4,18.0,30.24,East,95,16.0,16.0,83,0.00,,,0.00,0,Wunderground v.1.15,2013-02-22 03:00:00,
2013-02-21 22:05:00,22.4,18.0,30.24,East,89,15.0,16.0,83,0.00,,,0.00,0,Wunderground v.1.15,2013-02-22 03:05:00,
2013-02-21 22:15:00,22.3,17.6,30.25,East,94,15.0,16.0,82,0.00,,,0.00,0,Wunderground v.1.15,2013-02-22 03:15:00,
2013-02-21 22:25:00,22.3,17.6,30.26,ESE,116,13.0,14.0,82,0.00,,,0.00,0,Wunderground v.1.15,2013-02-22 03:25:00,
2013-02-21 22:35:00,22.2,17.5,30.25,East,90,14.0,18.0,82,0.00,,,0.00,0,Wunderground v.1.15,2013-02-22 03:35:00,
2013-02-21 22:45:00,22.1,17.7,30.24,East,92,14.0,16.0,83,0.00,,,0.00,0,Wunderground v.1.15,2013-02-22 03:45:00,
2013-02-21 22:55:00,22.0,17.6,30.24,East,97,14.0,15.0,83,0.00,,,0.00,0,Wunderground v.1.15,2013-02-22 03:55:00,
2013-02-21 23:05:00,21.9,17.5,30.22,East,84,14.0,14.0,83,0.00,,,0.00,0,Wunderground v.1.15,2013-02-22 04:05:00,
2013-02-21 23:15:00,21.7,17.3,30.20,East,84,14.0,14.0,83,0.00,,,0.00,0,Wunderground v.1.15,2013-02-22 04:15:00,
2013-02-21 23:25:00,21.7,17.3,30.20,East,95,14.0,15.0,83,0.00,,,0.00,0,Wunderground v.1.15,2013-02-22 04:25:00,
2013-02-21 23:40:00,21.7,17.3,30.19,East,101,14.0,14.0,83,0.00,,,0.00,0,Wunderground v.1.15,2013-02-22 04:40:00,
2013-02-21 23:50:00,21.7,17.3,30.19,East,84,14.0,14.0,83,0.00,,,0.00,0,Wunderground v.1.15,2013-02-22 04:50:00,
2013-02-21 23:55:00,21.7,17.3,30.20,ESE,106,14.0,14.0,83,0.00,,,0.00,0,Wunderground v.1.15,2013-02-22 04:55:00,